createdAt,value
2019-02-25T00:00:06.003Z,0.00
2019-02-25T00:01:11.046Z,0.00
2019-02-25T00:02:05.958Z,0.00
2019-02-25T00:03:07.829Z,0.00
2019-02-25T00:04:26.881Z,0.00
2019-02-25T00:05:05.800Z,0.00
2019-02-25T00:06:08.701Z,0.00
2019-02-25T00:07:06.883Z,0.00
2019-02-25T00:08:07.905Z,0.00
2019-02-25T00:09:05.905Z,0.00
2019-02-25T00:10:05.786Z,0.00
2019-02-25T00:11:05.827Z,0.00
2019-02-25T00:12:05.862Z,0.00
2019-02-25T00:13:05.804Z,0.00
2019-02-25T00:14:06.021Z,0.00
2019-02-25T00:15:05.790Z,0.00
2019-02-25T00:16:09.430Z,0.00
2019-02-25T00:17:06.360Z,0.00
2019-02-25T00:18:06.267Z,0.00
2019-02-25T00:19:05.687Z,0.00
2019-02-25T00:20:05.574Z,0.00
2019-02-25T00:21:05.829Z,0.00
2019-02-25T00:23:06.361Z,0.00
2019-02-25T00:25:32.679Z,0.00
2019-02-25T00:26:27.102Z,0.00
2019-02-25T00:28:27.264Z,0.00
2019-02-25T00:29:27.327Z,0.00
2019-02-25T00:30:29.100Z,0.00
2019-02-25T00:32:32.029Z,0.00
2019-02-25T00:33:27.264Z,0.00
2019-02-25T00:34:31.995Z,0.00
2019-02-25T00:35:42.011Z,0.00
2019-02-25T00:36:27.287Z,0.00
2019-02-25T00:38:32.085Z,0.00
2019-02-25T00:40:27.664Z,0.00
2019-02-25T00:41:28.017Z,0.00
2019-02-25T00:42:27.895Z,0.00
2019-02-25T00:43:34.077Z,0.00
2019-02-25T00:44:27.918Z,0.00
2019-02-25T00:45:27.101Z,0.00
2019-02-25T00:46:27.108Z,0.00
2019-02-25T00:47:30.048Z,0.00
2019-02-25T00:48:27.074Z,0.00
2019-02-25T00:49:26.904Z,0.00
2019-02-25T00:50:27.898Z,0.00
2019-02-25T00:51:34.033Z,0.00
2019-02-25T00:52:28.971Z,0.00
2019-02-25T00:53:26.887Z,0.00
2019-02-25T00:54:28.346Z,0.00
2019-02-25T00:55:26.905Z,0.00
2019-02-25T00:56:28.373Z,0.00
2019-02-25T00:57:26.928Z,0.00
2019-02-25T00:58:26.970Z,0.00
2019-02-25T01:00:29.279Z,0.00
2019-02-25T01:01:27.636Z,0.00
2019-02-25T01:02:26.944Z,0.00
2019-02-25T01:03:27.000Z,0.00
2019-02-25T01:04:28.517Z,0.00
2019-02-25T01:05:33.553Z,0.00
2019-02-25T01:06:29.370Z,0.00
2019-02-25T01:07:27.612Z,0.00
2019-02-25T01:08:29.488Z,0.00
2019-02-25T01:09:26.623Z,0.00
2019-02-25T01:10:47.719Z,0.00
2019-02-25T01:11:26.617Z,0.00
2019-02-25T01:12:27.368Z,0.00
2019-02-25T01:13:27.631Z,0.00
2019-02-25T01:14:26.497Z,0.00
2019-02-25T01:15:27.463Z,0.00
2019-02-25T01:16:26.486Z,0.00
2019-02-25T01:17:26.648Z,0.00
2019-02-25T01:18:26.522Z,0.00
2019-02-25T01:19:28.602Z,0.00
2019-02-25T01:20:28.515Z,0.00
2019-02-25T01:21:26.532Z,0.00
2019-02-25T01:22:26.514Z,0.00
2019-02-25T01:23:28.029Z,0.00
2019-02-25T01:24:26.432Z,0.00
2019-02-25T01:25:26.306Z,0.00
2019-02-25T01:26:28.030Z,0.00
2019-02-25T01:27:26.268Z,0.00
2019-02-25T01:28:27.945Z,0.00
2019-02-25T01:29:26.442Z,0.00
2019-02-25T01:30:26.444Z,0.00
2019-02-25T01:31:37.410Z,0.00
2019-02-25T01:33:23.221Z,0.00
2019-02-25T01:34:19.570Z,0.00
2019-02-25T01:35:20.144Z,0.00
2019-02-25T01:36:24.146Z,0.00
2019-02-25T01:37:20.157Z,0.00
2019-02-25T01:38:26.112Z,0.00
2019-02-25T01:39:19.438Z,0.00
2019-02-25T01:40:20.391Z,0.00
2019-02-25T01:41:19.435Z,0.00
2019-02-25T01:42:24.126Z,0.00
2019-02-25T01:43:19.495Z,0.00
2019-02-25T01:44:21.216Z,0.00
2019-02-25T01:45:19.382Z,0.00
2019-02-25T01:46:19.415Z,0.00
2019-02-25T01:47:20.191Z,0.00
2019-02-25T01:48:19.826Z,0.00
2019-02-25T01:49:21.419Z,0.00
2019-02-25T01:50:22.281Z,0.00
2019-02-25T01:52:19.333Z,0.00
2019-02-25T01:53:20.258Z,0.00
2019-02-25T01:54:19.283Z,0.00
2019-02-25T01:55:19.271Z,0.00
2019-02-25T01:56:20.399Z,0.00
2019-02-25T01:57:19.232Z,0.00
2019-02-25T01:58:19.247Z,0.00
2019-02-25T01:59:19.670Z,0.00
2019-02-25T02:00:19.522Z,0.00
2019-02-25T02:01:19.706Z,0.00
2019-02-25T02:02:19.155Z,0.00
2019-02-25T02:03:19.230Z,0.00
2019-02-25T02:04:19.420Z,0.00
2019-02-25T02:05:21.703Z,0.00
2019-02-25T02:06:21.683Z,0.00
2019-02-25T02:07:19.022Z,0.00
2019-02-25T02:08:20.399Z,0.00
2019-02-25T02:09:19.886Z,0.00
2019-02-25T02:10:23.666Z,0.00
2019-02-25T02:11:23.715Z,0.00
2019-02-25T02:12:20.059Z,0.00
2019-02-25T02:13:18.881Z,0.00
2019-02-25T02:14:18.849Z,0.00
2019-02-25T02:15:19.723Z,0.00
2019-02-25T02:16:19.105Z,0.00
2019-02-25T02:17:19.691Z,0.00
2019-02-25T02:18:18.695Z,0.00
2019-02-25T02:19:18.884Z,0.00
2019-02-25T02:20:18.787Z,0.00
2019-02-25T02:21:18.818Z,0.00
2019-02-25T02:22:19.822Z,0.00
2019-02-25T02:23:20.834Z,0.00
2019-02-25T02:24:25.935Z,0.00
2019-02-25T02:25:19.828Z,0.00
2019-02-25T02:26:21.048Z,0.00
2019-02-25T02:27:19.315Z,0.00
2019-02-25T02:28:19.923Z,0.00
2019-02-25T02:29:23.279Z,0.00
2019-02-25T02:30:19.234Z,0.00
2019-02-25T02:31:18.559Z,0.00
2019-02-25T02:32:18.655Z,0.00
2019-02-25T02:33:19.152Z,0.00
2019-02-25T02:34:18.598Z,0.00
2019-02-25T02:35:19.335Z,0.00
2019-02-25T02:36:23.289Z,0.00
2019-02-25T02:37:20.320Z,0.00
2019-02-25T02:38:18.519Z,0.00
2019-02-25T02:39:19.325Z,0.00
2019-02-25T02:40:18.473Z,0.00
2019-02-25T02:41:19.283Z,0.00
2019-02-25T02:42:19.494Z,0.00
2019-02-25T02:43:18.453Z,0.00
2019-02-25T02:44:19.720Z,0.00
2019-02-25T02:45:18.634Z,0.00
2019-02-25T02:46:18.422Z,0.00
2019-02-25T02:47:18.340Z,0.00
2019-02-25T02:48:19.276Z,0.00
2019-02-25T02:49:19.410Z,0.00
2019-02-25T02:50:18.319Z,0.00
2019-02-25T02:51:18.144Z,0.00
2019-02-25T02:52:18.295Z,0.00
2019-02-25T02:53:18.168Z,0.00
2019-02-25T02:54:19.358Z,0.00
2019-02-25T02:55:18.313Z,0.00
2019-02-25T02:56:18.252Z,0.00
2019-02-25T02:57:18.118Z,0.00
2019-02-25T02:58:19.711Z,0.00
2019-02-25T02:59:18.181Z,0.00
2019-02-25T03:00:28.891Z,0.00
2019-02-25T03:01:19.760Z,0.00
2019-02-25T03:02:22.664Z,0.00
2019-02-25T03:03:18.727Z,0.00
2019-02-25T03:04:18.156Z,0.00
2019-02-25T03:05:18.117Z,0.00
2019-02-25T03:06:19.795Z,0.00
2019-02-25T03:07:17.968Z,0.00
2019-02-25T03:08:17.931Z,0.00
2019-02-25T03:09:20.660Z,0.00
2019-02-25T03:10:17.854Z,0.00
2019-02-25T03:11:18.748Z,0.00
2019-02-25T03:12:18.818Z,0.00
2019-02-25T03:13:17.921Z,0.00
2019-02-25T03:14:18.679Z,0.00
2019-02-25T03:15:17.790Z,0.00
2019-02-25T03:16:17.931Z,0.00
2019-02-25T03:17:17.893Z,0.00
2019-02-25T03:18:17.859Z,0.00
2019-02-25T03:19:17.913Z,0.00
2019-02-25T03:20:17.733Z,0.00
2019-02-25T03:21:17.796Z,0.00
2019-02-25T03:22:17.675Z,0.00
2019-02-25T03:23:17.888Z,0.00
2019-02-25T03:24:17.784Z,0.00
2019-02-25T03:25:18.336Z,0.00
2019-02-25T03:26:38.734Z,0.00
2019-02-25T03:27:17.564Z,0.00
2019-02-25T03:28:17.716Z,0.00
2019-02-25T03:29:17.721Z,0.00
2019-02-25T03:30:17.568Z,0.00
2019-02-25T03:31:19.261Z,0.00
2019-02-25T03:32:22.231Z,0.00
2019-02-25T03:33:17.555Z,0.00
2019-02-25T03:34:19.260Z,0.00
2019-02-25T03:35:17.715Z,0.00
2019-02-25T03:36:17.492Z,0.00
2019-02-25T03:37:17.495Z,0.00
2019-02-25T03:38:17.427Z,0.00
2019-02-25T03:39:20.179Z,0.00
2019-02-25T03:40:17.336Z,0.00
2019-02-25T03:41:17.488Z,0.00
2019-02-25T03:42:17.402Z,0.00
2019-02-25T03:43:17.273Z,0.00
2019-02-25T03:44:17.517Z,0.00
2019-02-25T03:45:38.412Z,0.00
2019-02-25T03:46:18.234Z,0.00
2019-02-25T03:47:17.430Z,0.00
2019-02-25T03:48:19.245Z,0.00
2019-02-25T03:49:19.366Z,0.00
2019-02-25T03:50:20.214Z,0.00
2019-02-25T03:51:18.303Z,0.00
2019-02-25T03:52:27.623Z,0.00
2019-02-25T03:53:17.204Z,0.00
2019-02-25T03:54:17.144Z,0.00
2019-02-25T03:55:17.239Z,0.00
2019-02-25T03:56:21.793Z,0.00
2019-02-25T03:57:17.280Z,0.00
2019-02-25T03:58:17.086Z,0.00
2019-02-25T03:59:19.819Z,0.00
2019-02-25T04:00:24.709Z,0.00
2019-02-25T04:01:17.781Z,0.00
2019-02-25T04:02:17.085Z,0.00
2019-02-25T04:03:17.737Z,0.00
2019-02-25T04:05:19.631Z,0.00
2019-02-25T04:06:16.880Z,0.00
2019-02-25T04:07:18.713Z,0.00
2019-02-25T04:08:16.965Z,0.00
2019-02-25T04:09:27.815Z,0.00
2019-02-25T04:10:21.662Z,0.00
2019-02-25T04:11:16.844Z,0.00
2019-02-25T04:12:16.968Z,0.00
2019-02-25T04:13:18.777Z,0.00
2019-02-25T04:14:18.739Z,0.00
2019-02-25T04:16:39.163Z,0.00
2019-02-25T04:17:38.118Z,0.00
2019-02-25T04:19:32.188Z,0.00
2019-02-25T04:20:31.985Z,0.00
2019-02-25T04:21:31.487Z,0.00
2019-02-25T04:22:31.438Z,0.00
2019-02-25T04:23:31.602Z,0.00
2019-02-25T04:24:31.577Z,0.00
2019-02-25T04:25:31.512Z,0.00
2019-02-25T04:26:31.410Z,0.00
2019-02-25T04:27:36.359Z,0.00
2019-02-25T04:29:52.830Z,0.00
2019-02-25T04:30:52.488Z,0.00
2019-02-25T04:31:51.702Z,0.00
2019-02-25T04:32:52.397Z,0.00
2019-02-25T04:34:05.484Z,0.00
2019-02-25T04:35:46.257Z,0.00
2019-02-25T04:36:45.585Z,0.00
2019-02-25T04:38:56.476Z,0.00
2019-02-25T04:39:56.428Z,0.00
2019-02-25T04:40:56.352Z,0.00
2019-02-25T04:42:01.123Z,0.00
2019-02-25T04:42:57.234Z,0.00
2019-02-25T04:44:57.236Z,0.00
2019-02-25T04:45:59.083Z,0.00
2019-02-25T04:46:56.335Z,0.00
2019-02-25T04:48:18.320Z,0.00
2019-02-25T04:48:56.368Z,0.00
2019-02-25T04:49:56.427Z,0.00
2019-02-25T04:50:57.064Z,0.00
2019-02-25T04:51:57.279Z,0.00
2019-02-25T04:52:58.275Z,0.00
2019-02-25T04:53:56.438Z,0.00
2019-02-25T04:54:58.052Z,0.00
2019-02-25T04:55:56.312Z,4.00
2019-02-25T04:57:01.350Z,4.00
2019-02-25T04:57:57.090Z,0.00
2019-02-25T04:59:00.035Z,0.00
2019-02-25T04:59:56.690Z,4.00
2019-02-25T05:00:56.232Z,4.00
2019-02-25T05:01:56.589Z,4.00
2019-02-25T05:02:56.115Z,4.00
2019-02-25T05:03:56.184Z,4.00
2019-02-25T05:04:55.982Z,4.00
2019-02-25T05:06:56.735Z,4.00
2019-02-25T05:07:56.165Z,8.00
2019-02-25T05:08:56.020Z,8.00
2019-02-25T05:09:56.063Z,8.00
2019-02-25T05:10:55.891Z,12.00
2019-02-25T05:11:57.693Z,12.00
2019-02-25T05:15:38.958Z,20.00
2019-02-25T05:16:37.445Z,24.00
2019-02-25T05:18:33.807Z,28.00
2019-02-25T05:19:30.935Z,36.00
2019-02-25T05:21:24.030Z,44.00
2019-02-25T05:22:38.614Z,52.00
2019-02-25T05:23:23.907Z,56.00
2019-02-25T05:24:26.651Z,64.00
2019-02-25T05:25:23.923Z,68.00
2019-02-25T05:26:24.064Z,76.00
2019-02-25T05:27:23.979Z,88.00
2019-02-25T05:28:25.781Z,96.00
2019-02-25T05:29:24.044Z,108.00
2019-02-25T05:30:23.935Z,120.00
2019-02-25T05:31:26.540Z,128.00
2019-02-25T05:32:23.986Z,144.00
2019-02-25T05:33:44.821Z,156.00
2019-02-25T05:34:24.829Z,168.00
2019-02-25T05:35:25.661Z,184.00
2019-02-25T05:36:23.758Z,196.00
2019-02-25T05:37:26.484Z,216.00
2019-02-25T05:39:53.257Z,256.00
2019-02-25T05:40:45.889Z,276.00
2019-02-25T05:42:43.117Z,312.00
2019-02-25T05:43:39.733Z,336.00
2019-02-25T05:45:32.999Z,376.00
2019-02-25T05:46:32.795Z,408.00
2019-02-25T05:47:33.357Z,432.00
2019-02-25T05:48:32.849Z,460.00
2019-02-25T05:50:32.971Z,524.00
2019-02-25T05:51:34.502Z,560.00
2019-02-25T05:52:32.691Z,600.00
2019-02-25T05:53:33.489Z,636.00
2019-02-25T05:54:32.718Z,676.00
2019-02-25T05:55:33.105Z,724.00
2019-02-25T05:56:33.549Z,776.00
2019-02-25T05:57:33.385Z,816.00
2019-02-25T05:58:32.838Z,864.00
2019-02-25T05:59:32.739Z,908.00
2019-02-25T06:00:32.747Z,972.00
2019-02-25T06:01:32.845Z,1048.00
2019-02-25T06:02:35.339Z,1096.00
2019-02-25T06:03:32.888Z,1156.00
2019-02-25T06:04:32.571Z,1240.00
2019-02-25T06:05:33.435Z,1356.00
2019-02-25T06:06:32.679Z,1420.00
2019-02-25T06:07:34.538Z,1464.00
2019-02-25T06:08:32.633Z,1496.00
2019-02-25T06:09:32.661Z,1548.00
2019-02-25T06:10:32.473Z,1680.00
2019-02-25T06:11:32.482Z,1760.00
2019-02-25T06:12:32.416Z,1720.00
2019-02-25T06:13:34.489Z,1804.00
2019-02-25T06:14:32.889Z,1904.00
2019-02-25T06:15:33.840Z,2052.00
2019-02-25T06:16:32.364Z,2192.00
2019-02-25T06:17:32.404Z,2348.00
2019-02-25T06:18:32.421Z,2524.00
2019-02-25T06:19:32.418Z,2504.00
2019-02-25T06:20:33.041Z,2464.00
2019-02-25T06:21:32.344Z,2568.00
2019-02-25T06:22:32.945Z,2728.00
2019-02-25T06:23:32.313Z,2668.00
2019-02-25T06:24:34.180Z,2780.00
2019-02-25T06:25:32.190Z,3020.00
2019-02-25T06:26:32.349Z,3328.00
2019-02-25T06:27:32.410Z,3528.00
2019-02-25T06:28:32.268Z,3772.00
2019-02-25T06:29:32.272Z,3896.00
2019-02-25T06:30:34.939Z,4032.00
2019-02-25T06:31:32.150Z,4244.00
2019-02-25T06:32:42.914Z,4340.00
2019-02-25T06:33:32.213Z,4456.00
2019-02-25T06:34:32.135Z,4628.00
2019-02-25T06:35:33.867Z,4816.00
2019-02-25T06:36:32.038Z,4992.00
2019-02-25T06:37:32.122Z,5156.00
2019-02-25T06:38:33.859Z,5408.00
2019-02-25T06:39:33.170Z,5632.00
2019-02-25T06:40:32.841Z,5736.00
2019-02-25T06:41:32.109Z,5860.00
2019-02-25T06:42:33.860Z,5964.00
2019-02-25T06:43:31.954Z,6168.00
2019-02-25T06:44:33.091Z,6428.00
2019-02-25T06:45:32.873Z,6604.00
2019-02-25T06:46:31.997Z,6768.00
2019-02-25T06:47:31.955Z,6848.00
2019-02-25T06:48:32.524Z,7016.00
2019-02-25T06:49:32.288Z,7220.00
2019-02-25T06:50:31.839Z,7436.00
2019-02-25T06:51:32.097Z,7600.00
2019-02-25T06:52:33.699Z,7680.00
2019-02-25T06:53:31.831Z,7836.00
2019-02-25T06:54:31.972Z,8092.00
2019-02-25T06:55:31.988Z,8188.00
2019-02-25T06:56:42.669Z,8408.00
2019-02-25T06:57:32.594Z,8568.00
2019-02-25T06:58:33.514Z,8716.00
2019-02-25T06:59:32.163Z,8932.00
2019-02-25T07:00:34.608Z,9124.00
2019-02-25T07:01:31.658Z,9272.00
2019-02-25T07:02:31.732Z,9380.00
2019-02-25T07:03:31.817Z,9360.00
2019-02-25T07:04:31.999Z,9420.00
2019-02-25T07:05:33.446Z,9644.00
2019-02-25T07:06:31.725Z,10028.00
2019-02-25T07:07:31.602Z,10156.00
2019-02-25T07:08:32.582Z,10284.00
2019-02-25T07:09:31.739Z,10480.00
2019-02-25T07:10:32.476Z,10720.00
2019-02-25T07:11:31.654Z,10936.00
2019-02-25T07:12:31.652Z,11300.00
2019-02-25T07:13:31.652Z,11684.00
2019-02-25T07:14:31.812Z,11892.00
2019-02-25T07:15:31.519Z,12164.00
2019-02-25T07:17:31.521Z,12628.00
2019-02-25T07:18:31.524Z,12760.00
2019-02-25T07:19:32.566Z,12832.00
2019-02-25T07:20:31.578Z,12820.00
2019-02-25T07:21:31.728Z,12940.00
2019-02-25T07:22:31.645Z,13004.00
2019-02-25T07:23:31.505Z,13104.00
2019-02-25T07:24:31.676Z,13160.00
2019-02-25T07:25:31.487Z,13224.00
2019-02-25T07:26:33.409Z,13316.00
2019-02-25T07:27:32.523Z,13416.00
2019-02-25T07:28:32.391Z,13464.00
2019-02-25T07:29:34.512Z,13616.00
2019-02-25T07:30:42.220Z,13700.00
2019-02-25T07:31:31.650Z,13724.00
2019-02-25T07:32:31.522Z,13848.00
2019-02-25T07:33:31.532Z,13912.00
2019-02-25T07:34:35.460Z,13900.00
2019-02-25T07:35:31.468Z,13988.00
2019-02-25T07:36:47.396Z,14092.00
2019-02-25T07:37:35.483Z,14240.00
2019-02-25T07:38:39.228Z,14688.00
2019-02-25T07:39:33.388Z,14752.00
2019-02-25T07:40:34.211Z,14848.00
2019-02-25T07:41:38.400Z,14912.00
2019-02-25T07:42:32.124Z,14976.00
2019-02-25T07:43:32.515Z,15168.00
2019-02-25T07:44:31.701Z,15264.00
2019-02-25T07:45:31.442Z,15360.00
2019-02-25T07:46:31.478Z,15488.00
2019-02-25T07:47:31.800Z,15520.00
2019-02-25T07:49:32.582Z,15616.00
2019-02-25T07:50:31.507Z,15712.00
2019-02-25T07:51:31.977Z,15840.00
2019-02-25T07:52:37.970Z,15936.00
2019-02-25T07:53:31.557Z,16128.00
2019-02-25T07:54:37.999Z,16224.00
2019-02-25T07:56:01.764Z,16384.00
2019-02-25T07:56:32.134Z,16576.00
2019-02-25T07:57:31.351Z,16672.00
2019-02-25T07:58:36.020Z,16736.00
2019-02-25T07:59:46.097Z,16864.00
2019-02-25T08:00:43.475Z,16960.00
2019-02-25T08:01:31.969Z,17088.00
2019-02-25T08:02:31.370Z,17216.00
2019-02-25T08:03:52.611Z,17280.00
2019-02-25T08:04:31.406Z,17472.00
2019-02-25T08:05:32.064Z,17664.00
2019-02-25T08:06:35.015Z,17696.00
2019-02-25T08:07:39.071Z,17760.00
2019-02-25T08:08:32.405Z,17888.00
2019-02-25T08:09:33.547Z,18080.00
2019-02-25T08:10:33.364Z,18144.00
2019-02-25T08:12:38.714Z,18464.00
2019-02-25T08:13:36.131Z,18496.00
2019-02-25T08:14:33.148Z,18688.00
2019-02-25T08:15:31.522Z,18848.00
2019-02-25T08:16:37.298Z,19008.00
2019-02-25T08:17:31.432Z,19200.00
2019-02-25T08:18:32.491Z,19232.00
2019-02-25T08:19:31.677Z,19456.00
2019-02-25T08:20:35.045Z,19520.00
2019-02-25T08:21:35.544Z,19520.00
2019-02-25T08:22:36.111Z,19456.00
2019-02-25T08:23:33.062Z,19456.00
2019-02-25T08:24:54.149Z,19616.00
2019-02-25T08:26:35.880Z,19936.00
2019-02-25T08:27:50.460Z,19936.00
2019-02-25T08:29:32.363Z,20128.00
2019-02-25T08:32:32.508Z,20640.00
2019-02-25T08:34:25.160Z,20640.00
2019-02-25T08:36:40.180Z,21024.00
2019-02-25T08:39:16.699Z,21472.00
2019-02-25T08:41:29.362Z,21376.00
2019-02-25T08:42:18.580Z,21248.00
2019-02-25T08:46:25.798Z,21280.00
2019-02-25T08:49:35.074Z,21312.00
2019-02-25T08:52:22.675Z,21600.00
2019-02-25T08:56:29.897Z,21760.00
2019-02-25T08:59:06.325Z,21984.00
2019-02-25T09:01:56.997Z,22208.00
2019-02-25T09:03:41.990Z,22304.00
2019-02-25T09:06:38.128Z,22496.00
2019-02-25T09:10:33.383Z,22848.00
2019-02-25T09:13:04.361Z,23104.00
2019-02-25T09:15:48.677Z,23360.00
2019-02-25T09:18:28.133Z,23552.00
2019-02-25T09:27:16.190Z,24480.00
2019-02-25T09:28:14.128Z,24544.00
2019-02-25T09:29:13.347Z,24640.00
2019-02-25T09:30:13.028Z,24704.00
2019-02-25T09:31:13.596Z,24832.00
2019-02-25T09:32:16.700Z,24928.00
2019-02-25T09:33:17.554Z,25024.00
2019-02-25T09:34:13.508Z,25024.00
2019-02-25T09:35:14.223Z,25120.00
2019-02-25T09:36:14.205Z,25184.00
2019-02-25T09:37:16.452Z,25216.00
2019-02-25T09:38:13.252Z,25408.00
2019-02-25T09:39:14.127Z,25408.00
2019-02-25T09:40:14.166Z,25568.00
2019-02-25T09:41:13.174Z,25696.00
2019-02-25T09:42:13.062Z,25824.00
2019-02-25T09:43:15.120Z,25760.00
2019-02-25T09:44:17.608Z,25952.00
2019-02-25T09:45:13.732Z,26112.00
2019-02-25T09:46:15.181Z,26240.00
2019-02-25T09:47:15.569Z,26272.00
2019-02-25T09:48:13.253Z,26464.00
2019-02-25T09:49:13.234Z,26624.00
2019-02-25T09:50:13.134Z,26688.00
2019-02-25T09:52:13.240Z,26976.00
2019-02-25T09:53:13.305Z,27008.00
2019-02-25T09:54:14.465Z,27136.00
2019-02-25T09:55:14.919Z,27136.00
2019-02-25T09:56:13.048Z,27232.00
2019-02-25T09:57:13.193Z,27456.00
2019-02-25T09:58:13.132Z,27808.00
2019-02-25T09:59:13.363Z,28224.00
2019-02-25T10:01:15.261Z,28576.00
2019-02-25T10:02:13.329Z,28032.00
2019-02-25T10:03:15.177Z,28096.00
2019-02-25T10:04:12.953Z,28000.00
2019-02-25T10:05:13.480Z,28480.00
2019-02-25T10:06:14.031Z,28384.00
2019-02-25T10:07:14.232Z,28288.00
2019-02-25T10:08:13.075Z,28992.00
2019-02-25T10:09:13.471Z,29120.00
2019-02-25T10:10:14.983Z,29472.00
2019-02-25T10:11:13.049Z,29888.00
2019-02-25T10:12:13.353Z,30048.00
2019-02-25T10:13:16.039Z,29408.00
2019-02-25T10:14:14.714Z,24000.00
2019-02-25T10:15:15.921Z,22592.00
2019-02-25T10:16:13.260Z,21952.00
2019-02-25T10:18:13.101Z,26496.00
2019-02-25T10:19:13.618Z,24160.00
2019-02-25T10:20:13.080Z,24864.00
2019-02-25T10:21:16.643Z,21120.00
2019-02-25T10:22:14.914Z,21696.00
2019-02-25T10:23:13.024Z,24384.00
2019-02-25T10:24:13.102Z,24448.00
2019-02-25T10:25:17.454Z,23104.00
2019-02-25T10:26:13.352Z,27296.00
2019-02-25T10:27:15.047Z,25760.00
2019-02-25T10:28:13.332Z,26816.00
2019-02-25T10:29:15.252Z,27392.00
2019-02-25T10:30:14.197Z,26688.00
2019-02-25T10:31:17.516Z,30912.00
2019-02-25T10:32:15.719Z,30528.00
2019-02-25T10:33:13.237Z,29792.00
2019-02-25T10:34:13.277Z,31328.00
2019-02-25T10:35:13.267Z,31424.00
2019-02-25T10:36:13.479Z,31968.00
2019-02-25T10:40:15.228Z,32320.00
2019-02-25T10:41:14.308Z,32928.00
2019-02-25T10:42:13.218Z,32960.00
2019-02-25T10:43:13.303Z,32960.00
2019-02-25T10:44:13.432Z,33088.00
2019-02-25T10:45:13.517Z,33152.00
2019-02-25T10:46:17.696Z,33344.00
2019-02-25T10:47:15.218Z,33504.00
2019-02-25T10:48:15.183Z,33920.00
2019-02-25T10:49:13.158Z,34048.00
2019-02-25T10:51:13.707Z,34336.00
2019-02-25T10:52:17.317Z,33632.00
2019-02-25T10:53:15.194Z,31008.00
2019-02-25T10:54:18.948Z,34400.00
2019-02-25T10:57:14.509Z,25216.00
2019-02-25T10:58:15.589Z,29760.00
2019-02-25T10:59:13.321Z,31456.00
2019-02-25T11:00:13.789Z,31392.00
2019-02-25T11:01:17.425Z,35552.00
2019-02-25T11:02:15.334Z,36352.00
2019-02-25T11:03:17.875Z,36416.00
2019-02-25T11:04:15.275Z,35520.00
2019-02-25T11:06:14.794Z,35808.00
2019-02-25T11:07:13.406Z,34880.00
2019-02-25T11:08:14.446Z,32000.00
2019-02-25T11:10:14.017Z,36672.00
2019-02-25T11:11:16.309Z,37088.00
2019-02-25T11:12:13.436Z,38016.00
2019-02-25T11:13:22.661Z,39200.00
2019-02-25T11:14:17.332Z,39712.00
2019-02-25T11:15:17.280Z,39552.00
2019-02-25T11:16:14.016Z,39232.00
2019-02-25T11:17:18.080Z,37440.00
2019-02-25T11:18:17.441Z,37600.00
2019-02-25T11:19:13.518Z,37184.00
2019-02-25T11:20:13.565Z,37024.00
2019-02-25T11:21:14.521Z,36960.00
2019-02-25T11:22:16.236Z,37600.00
2019-02-25T11:23:19.442Z,38688.00
2019-02-25T11:24:16.525Z,39904.00
2019-02-25T11:25:15.131Z,41440.00
2019-02-25T11:26:17.544Z,42656.00
2019-02-25T11:27:14.599Z,43552.00
2019-02-25T11:28:24.878Z,42144.00
2019-02-25T11:29:16.338Z,40000.00
2019-02-25T11:30:14.380Z,43104.00
2019-02-25T11:31:15.474Z,41504.00
2019-02-25T11:32:14.361Z,36224.00
2019-02-25T11:33:13.449Z,43264.00
2019-02-25T11:34:13.303Z,42080.00
2019-02-25T11:35:13.433Z,40224.00
2019-02-25T11:36:15.418Z,44384.00
2019-02-25T11:37:14.550Z,48416.00
2019-02-25T11:38:16.755Z,48352.00
2019-02-25T11:40:16.220Z,49632.00
2019-02-25T11:41:13.461Z,49216.00
2019-02-25T11:42:18.789Z,50112.00
2019-02-25T11:43:15.881Z,49696.00
2019-02-25T11:44:13.379Z,48608.00
2019-02-25T11:45:13.440Z,48032.00
2019-02-25T11:46:13.769Z,52832.00
2019-02-25T11:47:13.839Z,54688.00
2019-02-25T11:48:15.985Z,55968.00
2019-02-25T11:49:15.111Z,56704.00
2019-02-25T11:50:13.575Z,56416.00
2019-02-25T11:51:13.594Z,55840.00
2019-02-25T11:52:13.519Z,55200.00
2019-02-25T11:53:13.560Z,57728.00
2019-02-25T11:54:13.567Z,58912.00
2019-02-25T11:56:13.611Z,59328.00
2019-02-25T11:57:15.394Z,59296.00
2019-02-25T11:58:14.867Z,58240.00
2019-02-25T11:59:13.407Z,57152.00
2019-02-25T12:00:14.717Z,52544.00
2019-02-25T12:01:13.608Z,56256.00
2019-02-25T12:02:13.755Z,58016.00
2019-02-25T12:03:13.626Z,58304.00
2019-02-25T12:04:22.779Z,49504.00
2019-02-25T12:05:14.368Z,51712.00
2019-02-25T12:06:14.711Z,50592.00
2019-02-25T12:07:13.667Z,47200.00
2019-02-25T12:09:17.345Z,44928.00
2019-02-25T12:10:14.468Z,42304.00
2019-02-25T12:11:13.582Z,40832.00
2019-02-25T12:12:16.382Z,41184.00
2019-02-25T12:13:15.970Z,41280.00
2019-02-25T12:15:15.114Z,38880.00
2019-02-25T12:16:14.606Z,36768.00
2019-02-25T12:17:13.645Z,36256.00
2019-02-25T12:18:13.689Z,35040.00
2019-02-25T12:19:17.913Z,34688.00
2019-02-25T12:20:14.645Z,36768.00
2019-02-25T12:21:15.119Z,38400.00
2019-02-25T12:22:13.736Z,40768.00
2019-02-25T12:23:13.644Z,46304.00
2019-02-25T12:24:14.691Z,47776.00
2019-02-25T12:25:13.599Z,49728.00
2019-02-25T12:26:13.551Z,46400.00
2019-02-25T12:27:14.625Z,46624.00
2019-02-25T12:28:15.259Z,45152.00
2019-02-25T12:29:14.509Z,46752.00
2019-02-25T12:30:15.857Z,43040.00
2019-02-25T12:31:15.288Z,47520.00
2019-02-25T12:32:13.761Z,43808.00
2019-02-25T12:33:13.512Z,39104.00
2019-02-25T12:34:13.806Z,31200.00
2019-02-25T12:36:14.530Z,21472.00
2019-02-25T12:38:15.515Z,23776.00
2019-02-25T12:39:14.062Z,29344.00
2019-02-25T12:40:15.951Z,22368.00
2019-02-25T12:42:35.047Z,22048.00
2019-02-25T12:43:13.745Z,24416.00
2019-02-25T12:44:14.022Z,23840.00
2019-02-25T12:45:14.518Z,23872.00
2019-02-25T12:48:37.399Z,23488.00
2019-02-25T12:49:14.455Z,22880.00
2019-02-25T12:50:16.107Z,24736.00
2019-02-25T12:51:13.794Z,27232.00
2019-02-25T12:52:15.579Z,26912.00
2019-02-25T12:53:15.365Z,25568.00
2019-02-25T12:54:35.034Z,26560.00
2019-02-25T12:55:15.682Z,23616.00
2019-02-25T12:56:15.779Z,24544.00
2019-02-25T12:57:15.919Z,23968.00
2019-02-25T12:58:13.320Z,22240.00
2019-02-25T12:59:15.845Z,18176.00
2019-02-25T13:00:36.295Z,21184.00
2019-02-25T13:02:13.531Z,23104.00
2019-02-25T13:03:14.443Z,22752.00
2019-02-25T13:04:15.131Z,20864.00
2019-02-25T13:05:13.555Z,18688.00
2019-02-25T13:06:35.131Z,17088.00
2019-02-25T13:07:13.357Z,18112.00
2019-02-25T13:09:13.288Z,13668.00
2019-02-25T13:10:13.346Z,12932.00
2019-02-25T13:11:13.449Z,11888.00
2019-02-25T13:12:34.208Z,11600.00
2019-02-25T13:13:13.444Z,12384.00
2019-02-25T13:14:13.300Z,11900.00
2019-02-25T13:15:13.747Z,12584.00
2019-02-25T13:16:15.357Z,12108.00
2019-02-25T13:17:13.957Z,15168.00
2019-02-25T13:18:36.109Z,16800.00
2019-02-25T13:19:14.985Z,14508.00
2019-02-25T13:20:13.105Z,12892.00
2019-02-25T13:22:15.994Z,10560.00
2019-02-25T13:23:13.421Z,9820.00
2019-02-25T13:24:35.163Z,8344.00
2019-02-25T13:25:14.496Z,7992.00
2019-02-25T13:27:13.876Z,8028.00
2019-02-25T13:28:13.057Z,7672.00
2019-02-25T13:29:13.118Z,7724.00
2019-02-25T13:30:35.699Z,7696.00
2019-02-25T13:31:13.287Z,7584.00
2019-02-25T13:32:13.180Z,7388.00
2019-02-25T13:33:14.743Z,7308.00
2019-02-25T13:34:13.340Z,7516.00
2019-02-25T13:35:13.243Z,7924.00
2019-02-25T13:36:34.244Z,7884.00
2019-02-25T13:37:13.954Z,7932.00
2019-02-25T13:38:14.038Z,7092.00
2019-02-25T13:39:12.967Z,6788.00
2019-02-25T13:40:13.070Z,6488.00
2019-02-25T13:41:12.962Z,6132.00
2019-02-25T13:42:34.205Z,5960.00
2019-02-25T13:43:13.280Z,5816.00
2019-02-25T13:44:13.109Z,5736.00
2019-02-25T13:46:15.572Z,5600.00
2019-02-25T13:48:34.093Z,5256.00
2019-02-25T13:49:12.951Z,5084.00
2019-02-25T13:50:15.482Z,4924.00
2019-02-25T13:51:12.926Z,4708.00
2019-02-25T13:52:12.905Z,4540.00
2019-02-25T13:53:13.036Z,4380.00
2019-02-25T13:54:33.884Z,4220.00
2019-02-25T13:55:13.551Z,4104.00
2019-02-25T13:56:13.086Z,3996.00
2019-02-25T13:57:13.706Z,3896.00
2019-02-25T13:58:14.835Z,3788.00
2019-02-25T13:59:14.747Z,3692.00
2019-02-25T14:00:35.660Z,3584.00